Time;durP1;ratioP1;P1;durP2;ratioP2;P2;SDS_P1;SDS_P2;PMS_P1;PMS_P2;Temp;Humidity;BMP_temperature;BMP_pressure;BME280_temperature;BME280_humidity;BME280_pressure;Samples;Min_cycle;Max_cycle;Signal;HPM_P1;HPM_P2
2021/08/21 00:00:35;;;;;;;3.20;2.90;;;13.10;99.90;;;;;;5104467;27;20232;-45
2021/08/21 00:03:01;;;;;;;5.83;3.33;;;13.10;99.90;;;;;;5104797;28;20701;-42
2021/08/21 00:05:28;;;;;;;4.13;2.73;;;13.10;99.90;;;;;;5103158;27;20204;-47
2021/08/21 00:07:55;;;;;;;3.83;3.10;;;13.00;99.90;;;;;;5112921;27;20216;-43
2021/08/21 00:10:22;;;;;;;5.37;3.30;;;13.00;99.90;;;;;;5122952;27;20959;-42
2021/08/21 00:12:49;;;;;;;6.37;3.50;;;13.00;99.90;;;;;;5125500;27;20193;-42
2021/08/21 00:15:19;;;;;;;3.37;3.07;;;12.90;99.90;;;;;;5123561;27;20212;-46
2021/08/21 00:17:46;;;;;;;4.53;3.00;;;12.90;99.90;;;;;;5124764;27;20208;-44
2021/08/21 00:20:13;;;;;;;3.30;3.00;;;12.90;99.90;;;;;;5132606;27;20796;-45
2021/08/21 00:22:40;;;;;;;4.27;2.50;;;12.90;99.90;;;;;;5119922;27;20577;-46
2021/08/21 00:25:08;;;;;;;4.57;2.97;;;12.90;99.90;;;;;;5121439;27;20722;-43
2021/08/21 00:27:35;;;;;;;4.37;3.17;;;12.90;99.90;;;;;;5127648;27;20196;-44
2021/08/21 00:30:02;;;;;;;3.10;2.67;;;12.80;99.90;;;;;;5121665;27;20232;-45
2021/08/21 00:32:31;;;;;;;3.83;3.53;;;12.80;99.90;;;;;;5124189;27;20189;-43
2021/08/21 00:34:57;;;;;;;5.60;3.37;;;12.70;99.90;;;;;;5123692;27;20231;-44
2021/08/21 00:37:25;;;;;;;4.27;2.90;;;12.70;99.90;;;;;;5106832;27;20216;-43
2021/08/21 00:39:51;;;;;;;5.33;3.07;;;12.70;99.90;;;;;;5123131;27;20221;-46
2021/08/21 00:42:18;;;;;;;6.23;3.57;;;12.70;99.90;;;;;;5121770;27;20901;-45
2021/08/21 00:44:46;;;;;;;4.83;3.30;;;12.70;99.90;;;;;;5116332;27;20199;-46
2021/08/21 00:47:14;;;;;;;3.73;3.23;;;12.70;99.90;;;;;;5132861;27;20207;-43
2021/08/21 00:49:44;;;;;;;2.93;2.73;;;12.70;99.90;;;;;;5144947;27;20561;-43
2021/08/21 00:52:13;;;;;;;4.17;3.17;;;12.70;99.90;;;;;;5123481;27;21756;-48
2021/08/21 00:54:40;;;;;;;5.10;2.67;;;12.70;99.90;;;;;;5126637;27;20745;-46
2021/08/21 00:57:08;;;;;;;6.43;3.03;;;12.70;99.90;;;;;;5121302;27;20196;-52
2021/08/21 00:59:36;;;;;;;4.07;2.83;;;12.70;99.90;;;;;;5123306;27;20265;-43
2021/08/21 01:02:04;;;;;;;4.50;3.07;;;12.70;99.90;;;;;;5113060;27;20830;-42
2021/08/21 01:04:33;;;;;;;4.17;2.93;;;12.70;99.90;;;;;;5123279;27;20657;-45
2021/08/21 01:07:03;;;;;;;4.70;2.90;;;12.70;99.90;;;;;;5116317;27;20189;-41
2021/08/21 01:09:30;;;;;;;3.57;2.77;;;12.70;99.90;;;;;;5108257;27;20237;-42
2021/08/21 01:11:56;;;;;;;3.10;2.90;;;12.70;99.90;;;;;;5110933;27;20196;-44
2021/08/21 01:14:27;;;;;;;2.77;2.57;;;12.70;99.90;;;;;;5112212;27;20912;-42
2021/08/21 01:16:54;;;;;;;2.80;2.60;;;12.60;99.90;;;;;;5132043;27;20193;-45
2021/08/21 01:19:22;;;;;;;3.93;2.23;;;12.60;99.90;;;;;;5140683;27;20191;-47
2021/08/21 01:21:49;;;;;;;2.70;2.50;;;12.60;99.90;;;;;;5142758;27;20712;-42
2021/08/21 01:24:18;;;;;;;4.77;3.10;;;12.60;99.90;;;;;;5117642;27;20698;-44
2021/08/21 01:26:51;;;;;;;3.00;2.73;;;12.60;99.90;;;;;;5120774;27;20489;-43
2021/08/21 01:29:27;;;;;;;3.87;2.87;;;12.50;99.90;;;;;;5119050;27;20188;-47
2021/08/21 01:32:07;;;;;;;3.43;2.67;;;12.40;99.90;;;;;;5124674;27;20212;-44
2021/08/21 01:34:34;;;;;;;3.93;3.10;;;12.30;99.90;;;;;;5119284;27;20212;-44
2021/08/21 01:37:00;;;;;;;5.03;3.07;;;12.30;99.90;;;;;;5122360;28;20204;-50
2021/08/21 01:39:36;;;;;;;3.23;2.93;;;12.20;99.90;;;;;;5106384;27;20215;-43
2021/08/21 01:42:13;;;;;;;3.83;3.00;;;12.20;99.90;;;;;;5114729;27;20216;-43
2021/08/21 01:44:41;;;;;;;3.70;2.97;;;12.10;99.90;;;;;;5114173;27;20225;-46
2021/08/21 01:47:08;;;;;;;3.53;2.93;;;12.10;99.90;;;;;;5137545;27;20222;-43
2021/08/21 01:49:35;;;;;;;3.53;2.97;;;12.20;99.90;;;;;;5142128;27;20192;-49
2021/08/21 01:52:06;;;;;;;3.47;3.17;;;12.20;99.90;;;;;;5127896;27;20226;-45
2021/08/21 01:54:33;;;;;;;3.50;2.73;;;12.20;99.90;;;;;;5135241;27;20296;-42
2021/08/21 01:57:03;;;;;;;3.87;3.07;;;12.20;99.90;;;;;;5119480;27;20564;-44
2021/08/21 01:59:51;;;;;;;3.57;2.80;;;12.10;99.90;;;;;;5127207;27;20226;-48
2021/08/21 02:02:24;;;;;;;3.37;3.07;;;12.00;99.90;;;;;;5126916;27;20196;-44
2021/08/21 02:05:14;;;;;;;3.20;2.90;;;12.00;99.90;;;;;;5101299;27;20700;-42
2021/08/21 02:07:41;;;;;;;4.87;3.30;;;12.10;99.90;;;;;;5106794;28;20989;-47
2021/08/21 02:10:09;;;;;;;4.73;3.10;;;12.10;99.90;;;;;;5117992;27;20227;-42
2021/08/21 02:12:35;;;;;;;2.97;2.73;;;12.10;99.90;;;;;;5113476;27;20208;-44
2021/08/21 02:15:07;;;;;;;6.53;3.30;;;12.00;99.90;;;;;;5126635;27;20227;-42
2021/08/21 02:17:34;;;;;;;5.37;2.83;;;11.90;99.90;;;;;;5122297;27;20808;-47
2021/08/21 02:20:16;;;;;;;6.17;3.30;;;11.90;99.90;;;;;;5121458;27;20209;-45
2021/08/21 02:22:45;;;;;;;3.50;3.20;;;11.80;99.90;;;;;;5130508;27;20268;-46
2021/08/21 02:25:13;;;;;;;2.90;2.70;;;11.70;99.90;;;;;;5146423;27;20237;-46
2021/08/21 02:27:44;;;;;;;3.27;2.67;;;11.70;99.90;;;;;;5116806;27;20204;-44
2021/08/21 02:30:13;;;;;;;4.67;2.97;;;11.60;99.90;;;;;;5127814;27;20307;-43
2021/08/21 02:32:39;;;;;;;5.67;3.07;;;11.60;99.90;;;;;;5130406;27;20180;-43
2021/08/21 02:35:07;;;;;;;4.90;2.40;;;11.60;99.90;;;;;;5128678;27;20248;-49
2021/08/21 02:37:33;;;;;;;5.60;2.80;;;11.60;99.90;;;;;;5124286;27;20191;-44
2021/08/21 02:40:03;;;;;;;4.17;2.43;;;11.60;99.90;;;;;;5127258;27;20255;-43
2021/08/21 02:42:30;;;;;;;3.80;2.70;;;11.60;99.90;;;;;;5106670;27;20208;-44
2021/08/21 02:44:56;;;;;;;4.53;2.30;;;11.60;99.90;;;;;;5127586;27;20188;-43
2021/08/21 02:47:24;;;;;;;3.00;2.57;;;11.60;99.90;;;;;;5123019;27;20189;-46
2021/08/21 02:49:51;;;;;;;3.27;2.73;;;11.50;99.90;;;;;;5125665;27;20571;-43
2021/08/21 02:52:18;;;;;;;5.67;2.80;;;11.50;99.90;;;;;;5125312;27;20654;-44
2021/08/21 02:54:45;;;;;;;5.17;3.60;;;11.50;99.90;;;;;;5124629;27;20220;-46
2021/08/21 02:57:11;;;;;;;4.90;4.00;;;11.50;99.90;;;;;;5125464;27;20245;-42
2021/08/21 02:59:40;;;;;;;7.20;4.50;;;11.50;99.90;;;;;;5107710;27;20218;-50
2021/08/21 03:02:07;;;;;;;4.40;4.00;;;11.50;99.90;;;;;;5142831;27;20204;-45
2021/08/21 03:04:40;;;;;;;4.80;3.90;;;11.60;99.90;;;;;;5145168;27;20191;-48
2021/08/21 03:07:07;;;;;;;4.70;3.93;;;11.50;99.90;;;;;;5125970;27;20204;-46
2021/08/21 03:09:47;;;;;;;5.57;3.77;;;11.50;99.90;;;;;;5128732;27;20209;-48
2021/08/21 03:12:15;;;;;;;3.87;3.60;;;11.40;99.90;;;;;;5128634;27;20267;-43
2021/08/21 03:14:49;;;;;;;5.73;3.37;;;11.40;99.90;;;;;;5113618;27;20709;-50
2021/08/21 03:17:16;;;;;;;4.00;3.60;;;11.40;99.90;;;;;;5125742;27;20200;-43
2021/08/21 03:19:44;;;;;;;7.60;3.73;;;11.40;99.90;;;;;;5120359;27;20246;-43
2021/08/21 03:22:12;;;;;;;8.03;3.60;;;11.40;99.90;;;;;;5110947;27;20748;-46
2021/08/21 03:24:41;;;;;;;6.60;3.60;;;11.30;99.90;;;;;;5124255;27;20211;-45
2021/08/21 03:27:10;;;;;;;3.63;3.17;;;11.30;99.90;;;;;;5119035;27;20207;-48
2021/08/21 03:29:39;;;;;;;3.70;2.90;;;11.30;99.90;;;;;;5106451;27;21935;-44
2021/08/21 03:32:10;;;;;;;4.80;2.97;;;11.20;99.90;;;;;;5123426;27;20215;-49
2021/08/21 03:34:37;;;;;;;4.03;3.00;;;11.20;99.90;;;;;;5137196;27;21002;-45
2021/08/21 03:37:06;;;;;;;2.97;2.60;;;11.10;99.90;;;;;;5130556;27;20192;-44
2021/08/21 03:39:38;;;;;;;5.23;2.87;;;11.10;99.90;;;;;;5126449;27;20204;-44
2021/08/21 03:42:06;;;;;;;4.70;2.90;;;11.10;99.90;;;;;;5118940;27;20212;-47
2021/08/21 03:44:33;;;;;;;6.30;3.30;;;11.10;99.90;;;;;;5122208;27;20479;-44
2021/08/21 03:46:59;;;;;;;6.93;3.87;;;11.10;99.90;;;;;;5109025;27;20697;-45
2021/08/21 03:49:26;;;;;;;7.43;2.93;;;11.10;99.90;;;;;;5125124;27;20881;-44
2021/08/21 03:51:53;;;;;;;3.90;3.00;;;11.10;99.90;;;;;;5124921;27;20205;-42
2021/08/21 03:54:24;;;;;;;3.20;2.67;;;11.10;99.90;;;;;;5132273;27;20187;-48
2021/08/21 03:56:54;;;;;;;3.30;3.00;;;11.00;99.90;;;;;;5125024;27;20215;-41
2021/08/21 03:59:23;;;;;;;4.73;2.60;;;11.00;99.90;;;;;;5126801;27;20202;-45
2021/08/21 04:01:52;;;;;;;4.97;2.33;;;11.00;99.90;;;;;;5107701;27;20655;-43
2021/08/21 04:04:26;;;;;;;4.07;2.80;;;11.00;99.90;;;;;;5110429;27;20890;-45
2021/08/21 04:06:53;;;;;;;2.90;2.60;;;11.00;99.90;;;;;;5114901;27;20250;-44
2021/08/21 04:09:26;;;;;;;5.67;2.80;;;11.10;99.90;;;;;;5114152;27;20257;-42
2021/08/21 04:11:57;;;;;;;4.60;2.70;;;11.10;99.90;;;;;;5114635;27;20197;-42
2021/08/21 04:14:25;;;;;;;6.47;2.70;;;11.10;99.90;;;;;;5099960;28;20189;-47
2021/08/21 04:16:52;;;;;;;5.47;3.27;;;11.20;99.90;;;;;;5096367;27;20709;-43
2021/08/21 04:19:20;;;;;;;3.40;2.87;;;11.20;99.90;;;;;;5119856;27;20197;-45
2021/08/21 04:21:49;;;;;;;3.27;2.93;;;11.20;99.90;;;;;;5124990;27;20277;-46
2021/08/21 04:24:27;;;;;;;4.73;3.47;;;11.30;99.90;;;;;;5108827;27;20924;-44
2021/08/21 04:27:00;;;;;;;3.67;3.13;;;11.30;99.90;;;;;;5119182;27;20570;-45
2021/08/21 04:29:27;;;;;;;3.50;3.20;;;11.30;99.90;;;;;;5124450;27;20898;-43
2021/08/21 04:31:54;;;;;;;4.73;3.60;;;11.40;99.90;;;;;;5115501;27;20506;-43
2021/08/21 04:34:21;;;;;;;3.93;3.63;;;11.50;99.90;;;;;;5120197;27;20208;-42
2021/08/21 04:36:48;;;;;;;3.77;3.47;;;11.60;99.90;;;;;;5122079;27;20220;-45
2021/08/21 04:39:18;;;;;;;5.83;3.40;;;11.60;99.90;;;;;;5114528;27;20211;-50
2021/08/21 04:41:52;;;;;;;9.07;3.87;;;11.70;99.90;;;;;;5120862;27;20714;-46
2021/08/21 04:44:18;;;;;;;8.03;3.97;;;11.70;99.90;;;;;;5125087;27;20653;-48
2021/08/21 04:46:45;;;;;;;3.93;3.50;;;11.70;99.90;;;;;;5103112;27;20211;-46
2021/08/21 04:49:12;;;;;;;3.50;3.20;;;11.70;99.90;;;;;;5123873;27;20631;-47
2021/08/21 04:51:38;;;;;;;4.60;3.37;;;11.80;99.90;;;;;;5121104;27;20233;-48
2021/08/21 04:54:09;;;;;;;5.97;4.00;;;11.90;99.90;;;;;;5120115;27;20239;-43
2021/08/21 04:56:36;;;;;;;5.47;4.87;;;11.90;99.90;;;;;;5107772;27;20229;-43
2021/08/21 04:59:24;;;;;;;5.03;4.47;;;11.90;99.90;;;;;;5125390;27;20212;-47
2021/08/21 05:01:55;;;;;;;9.60;5.50;;;11.90;99.90;;;;;;5126337;27;20393;-45
2021/08/21 05:04:22;;;;;;;5.90;4.90;;;11.90;99.90;;;;;;5095221;27;20679;-46
2021/08/21 05:06:50;;;;;;;7.23;5.57;;;12.00;99.90;;;;;;5126887;27;20223;-44
2021/08/21 05:09:17;;;;;;;6.03;4.87;;;12.00;99.90;;;;;;5129213;27;20196;-49
2021/08/21 05:11:47;;;;;;;6.00;4.60;;;12.00;99.90;;;;;;5121288;27;20307;-43
2021/08/21 05:14:14;;;;;;;7.00;5.80;;;12.00;99.90;;;;;;5105839;27;20196;-43
2021/08/21 05:16:43;;;;;;;5.30;4.60;;;12.10;99.90;;;;;;5113859;27;20219;-48
2021/08/21 05:19:33;;;;;;;5.83;5.20;;;12.20;99.90;;;;;;5106825;27;20212;-49
2021/08/21 05:22:10;;;;;;;6.77;5.07;;;12.20;99.90;;;;;;5121800;27;20249;-46
2021/08/21 05:24:37;;;;;;;7.00;5.20;;;12.20;99.90;;;;;;5123042;27;20275;-49
2021/08/21 05:27:06;;;;;;;5.40;4.87;;;12.30;99.90;;;;;;5115519;27;20188;-47
2021/08/21 05:29:32;;;;;;;5.73;5.00;;;12.40;99.90;;;;;;5103993;27;20205;-50
2021/08/21 05:32:00;;;;;;;5.20;4.63;;;12.40;99.90;;;;;;5118742;27;20207;-46
2021/08/21 05:34:27;;;;;;;5.43;4.80;;;12.40;99.90;;;;;;5096957;27;20213;-44
2021/08/21 05:36:54;;;;;;;7.47;5.23;;;12.50;99.90;;;;;;5120211;27;20310;-48
2021/08/21 05:39:20;;;;;;;6.97;4.93;;;12.50;99.90;;;;;;5115686;28;20280;-44
2021/08/21 05:41:47;;;;;;;8.80;5.73;;;12.60;99.90;;;;;;5110841;27;20898;-45
2021/08/21 05:44:13;;;;;;;6.30;5.37;;;12.70;99.90;;;;;;5113328;27;20197;-47
2021/08/21 05:46:40;;;;;;;6.50;5.53;;;12.70;99.90;;;;;;5108829;27;20195;-47
2021/08/21 05:49:08;;;;;;;7.13;5.20;;;12.70;99.90;;;;;;5107951;28;20565;-45
2021/08/21 05:51:35;;;;;;;7.43;5.63;;;12.80;99.90;;;;;;5110407;27;20224;-44
2021/08/21 05:54:01;;;;;;;6.40;5.50;;;12.90;99.90;;;;;;5124743;27;20207;-47
2021/08/21 05:56:28;;;;;;;6.23;5.63;;;13.00;99.90;;;;;;5121189;27;20223;-47
2021/08/21 05:58:54;;;;;;;8.80;5.97;;;13.00;99.90;;;;;;5137177;27;20188;-44
2021/08/21 06:01:21;;;;;;;10.13;5.67;;;13.10;99.90;;;;;;5098860;27;20713;-46
2021/08/21 06:03:47;;;;;;;7.33;6.17;;;13.20;99.90;;;;;;5115172;28;20192;-45
2021/08/21 06:06:16;;;;;;;7.07;6.27;;;13.20;99.90;;;;;;5108721;27;20209;-44
2021/08/21 06:08:43;;;;;;;9.87;6.63;;;13.30;99.90;;;;;;5115814;27;20284;-43
2021/08/21 06:11:09;;;;;;;6.27;5.57;;;13.40;99.90;;;;;;5122671;28;20216;-46
2021/08/21 06:13:40;;;;;;;8.80;6.03;;;13.50;99.90;;;;;;5113020;27;20228;-46
2021/08/21 06:16:06;;;;;;;7.73;6.07;;;13.60;99.90;;;;;;5104168;27;20213;-46
2021/08/21 06:18:33;;;;;;;7.53;5.50;;;13.60;99.90;;;;;;5114799;27;20197;-47
2021/08/21 06:21:00;;;;;;;6.23;5.30;;;13.70;99.90;;;;;;5107601;27;20223;-46
2021/08/21 06:23:28;;;;;;;6.57;5.30;;;13.80;99.90;;;;;;5108706;27;20194;-48
2021/08/21 06:25:55;;;;;;;5.77;5.17;;;13.90;99.90;;;;;;5116327;27;20918;-44
2021/08/21 06:28:21;;;;;;;5.73;5.20;;;14.00;99.90;;;;;;5114528;27;20682;-45
2021/08/21 06:30:48;;;;;;;6.67;4.70;;;14.00;99.90;;;;;;5109950;27;20231;-49
2021/08/21 06:33:14;;;;;;;5.40;4.90;;;14.10;99.90;;;;;;5103975;27;20193;-47
2021/08/21 06:35:41;;;;;;;7.10;5.47;;;14.20;99.90;;;;;;5103638;27;20209;-47
2021/08/21 06:38:08;;;;;;;4.93;4.50;;;14.30;99.90;;;;;;5102402;27;20204;-45
2021/08/21 06:40:35;;;;;;;7.73;4.70;;;14.40;99.90;;;;;;5117499;27;20209;-43
2021/08/21 06:43:02;;;;;;;5.93;4.30;;;14.40;99.90;;;;;;5123272;27;20554;-47
2021/08/21 06:45:33;;;;;;;5.20;4.70;;;14.50;99.90;;;;;;5098455;27;20205;-43
2021/08/21 06:48:00;;;;;;;4.73;4.33;;;14.60;99.90;;;;;;5108693;27;20211;-48
2021/08/21 06:50:33;;;;;;;8.10;4.13;;;14.60;99.90;;;;;;5120038;27;20225;-44
2021/08/21 06:53:00;;;;;;;5.10;2.93;;;14.70;99.90;;;;;;5118666;27;20209;-45
2021/08/21 06:55:26;;;;;;;3.93;3.60;;;14.70;99.90;;;;;;5125002;27;20188;-44
2021/08/21 06:57:54;;;;;;;5.20;3.80;;;14.80;99.90;;;;;;5117632;27;20236;-45
2021/08/21 07:00:21;;;;;;;5.57;3.23;;;14.90;99.90;;;;;;5115406;27;20229;-48
2021/08/21 07:02:48;;;;;;;4.00;3.67;;;15.00;99.90;;;;;;5118267;27;20212;-46
2021/08/21 07:05:14;;;;;;;3.20;2.90;;;15.10;99.90;;;;;;5118291;27;20196;-45
2021/08/21 07:07:41;;;;;;;2.90;2.70;;;15.20;99.90;;;;;;5100706;27;20201;-48
2021/08/21 07:10:09;;;;;;;2.50;2.30;;;15.20;99.90;;;;;;5118751;27;20582;-45
2021/08/21 07:12:35;;;;;;;3.40;2.80;;;15.30;99.90;;;;;;5118555;27;20958;-50
2021/08/21 07:15:04;;;;;;;4.30;3.20;;;15.30;99.90;;;;;;5121282;27;20197;-47
2021/08/21 07:17:30;;;;;;;2.90;2.20;;;15.40;99.90;;;;;;5120258;27;20208;-48
2021/08/21 07:19:57;;;;;;;3.37;2.20;;;15.50;99.90;;;;;;5140113;27;20208;-49
2021/08/21 07:22:24;;;;;;;2.63;2.13;;;15.60;99.90;;;;;;5123077;27;20200;-49
2021/08/21 07:24:50;;;;;;;3.97;1.90;;;15.70;99.90;;;;;;5106810;27;20213;-43
2021/08/21 07:27:17;;;;;;;2.30;2.00;;;15.70;99.90;;;;;;5110478;27;20201;-48
2021/08/21 07:29:44;;;;;;;2.17;2.00;;;15.80;99.90;;;;;;5123993;27;20204;-46
2021/08/21 07:32:12;;;;;;;2.17;1.97;;;15.90;99.90;;;;;;5106241;27;20205;-48
2021/08/21 07:34:40;;;;;;;2.50;2.30;;;15.90;99.90;;;;;;5104495;27;20201;-44
2021/08/21 07:37:07;;;;;;;1.93;1.83;;;16.00;99.90;;;;;;5115883;27;20216;-43
2021/08/21 07:39:33;;;;;;;3.13;1.87;;;16.10;99.90;;;;;;5107645;27;20204;-46
2021/08/21 07:42:00;;;;;;;2.50;1.90;;;16.20;99.90;;;;;;5125024;27;20184;-48
2021/08/21 07:44:27;;;;;;;2.17;1.70;;;16.30;99.90;;;;;;5122952;27;20196;-47
2021/08/21 07:46:53;;;;;;;2.40;1.90;;;16.30;99.90;;;;;;5119770;27;20577;-44
2021/08/21 07:49:21;;;;;;;3.67;1.70;;;16.40;99.90;;;;;;5124623;27;20203;-58
2021/08/21 07:51:48;;;;;;;3.77;1.23;;;16.40;99.90;;;;;;5124191;27;20208;-59
2021/08/21 07:54:15;;;;;;;3.73;1.40;;;16.50;99.90;;;;;;5112010;27;20197;-56
2021/08/21 07:56:41;;;;;;;3.50;1.50;;;16.50;99.90;;;;;;5110166;27;20204;-60
2021/08/21 07:59:08;;;;;;;1.50;1.40;;;16.60;99.90;;;;;;5121564;27;20208;-60
2021/08/21 08:01:35;;;;;;;1.97;1.40;;;16.70;99.90;;;;;;5107075;27;20216;-60
2021/08/21 08:04:02;;;;;;;1.57;1.47;;;16.70;99.90;;;;;;5123283;27;20257;-57
2021/08/21 08:06:29;;;;;;;2.80;1.33;;;16.80;99.90;;;;;;5106712;27;20772;-58
2021/08/21 08:08:56;;;;;;;1.93;1.80;;;16.90;99.90;;;;;;5112725;27;20196;-52
2021/08/21 08:11:23;;;;;;;3.13;1.27;;;16.90;99.90;;;;;;5107162;27;20697;-58
2021/08/21 08:13:49;;;;;;;1.20;1.07;;;17.00;99.90;;;;;;5121252;27;20274;-55
2021/08/21 08:16:16;;;;;;;1.60;1.50;;;17.00;99.90;;;;;;5111637;27;20662;-55
2021/08/21 08:18:42;;;;;;;1.77;1.67;;;17.10;99.90;;;;;;5113234;27;20196;-56
2021/08/21 08:21:11;;;;;;;1.83;1.30;;;17.10;99.90;;;;;;5110091;27;20225;-55
2021/08/21 08:23:39;;;;;;;2.53;1.43;;;17.20;99.90;;;;;;5113075;27;20889;-52
2021/08/21 08:26:05;;;;;;;3.40;1.40;;;17.30;99.90;;;;;;5101432;27;20211;-54
2021/08/21 08:28:32;;;;;;;2.53;1.40;;;17.30;99.90;;;;;;5121392;27;20757;-43
2021/08/21 08:30:59;;;;;;;1.20;1.10;;;17.40;99.90;;;;;;5124594;27;20701;-43
2021/08/21 08:33:25;;;;;;;1.60;1.47;;;17.50;99.90;;;;;;5115167;27;20265;-48
2021/08/21 08:35:52;;;;;;;1.57;1.23;;;17.50;99.90;;;;;;5114476;27;20197;-43
2021/08/21 08:38:19;;;;;;;1.63;1.30;;;17.60;99.90;;;;;;5109676;27;20241;-43
2021/08/21 08:40:48;;;;;;;3.13;1.40;;;17.60;99.90;;;;;;5117755;27;20223;-47
2021/08/21 08:43:15;;;;;;;1.83;1.20;;;17.70;99.90;;;;;;5102998;27;20200;-41
2021/08/21 08:45:42;;;;;;;1.53;1.10;;;17.80;99.90;;;;;;5125093;27;20208;-40
2021/08/21 08:48:09;;;;;;;1.87;1.10;;;17.80;99.90;;;;;;5109849;27;20196;-44
2021/08/21 08:50:36;;;;;;;1.73;1.30;;;17.90;99.90;;;;;;5117561;27;20242;-43
2021/08/21 08:53:03;;;;;;;3.13;1.30;;;17.90;99.90;;;;;;5098452;27;20857;-45
2021/08/21 08:55:29;;;;;;;1.10;0.73;;;18.00;99.90;;;;;;5121062;27;20196;-42
2021/08/21 08:57:57;;;;;;;1.37;0.90;;;18.00;99.90;;;;;;5108569;27;20566;-45
2021/08/21 09:00:26;;;;;;;2.13;1.10;;;18.00;99.90;;;;;;5122197;27;20201;-40
2021/08/21 09:02:54;;;;;;;2.10;1.10;;;18.10;99.90;;;;;;5117943;27;20204;-40
2021/08/21 09:05:23;;;;;;;2.27;1.37;;;18.20;99.90;;;;;;5105011;27;20198;-46
2021/08/21 09:07:52;;;;;;;1.50;1.30;;;18.20;99.90;;;;;;5109132;28;20245;-41
2021/08/21 09:10:21;;;;;;;1.27;0.90;;;18.30;99.90;;;;;;5120887;27;20216;-47
2021/08/21 09:12:49;;;;;;;1.40;0.90;;;18.40;99.90;;;;;;5124046;27;21770;-39
2021/08/21 09:15:28;;;;;;;2.17;1.17;;;18.40;99.90;;;;;;5115454;27;20203;-48
2021/08/21 09:18:08;;;;;;;1.70;0.93;;;18.40;99.90;;;;;;5117725;27;20239;-41
2021/08/21 09:20:50;;;;;;;1.00;0.90;;;18.50;99.90;;;;;;5115235;27;20319;-46
2021/08/21 09:23:19;;;;;;;0.70;0.70;;;18.60;99.90;;;;;;5116543;27;20249;-47
2021/08/21 09:25:48;;;;;;;1.50;1.20;;;18.60;99.90;;;;;;5104922;27;20209;-44
2021/08/21 09:28:16;;;;;;;0.70;0.70;;;18.70;99.90;;;;;;5091006;27;21186;-43
2021/08/21 09:30:45;;;;;;;1.50;1.10;;;18.80;99.90;;;;;;5124848;27;20227;-43
2021/08/21 09:33:11;;;;;;;0.90;0.70;;;18.80;99.90;;;;;;5122654;27;20192;-45
2021/08/21 09:35:38;;;;;;;1.20;0.80;;;18.80;99.90;;;;;;5113863;27;20201;-42
2021/08/21 09:38:05;;;;;;;1.10;1.10;;;18.80;99.90;;;;;;5100151;28;20705;-44
2021/08/21 09:40:34;;;;;;;1.77;0.97;;;18.90;99.90;;;;;;5101130;27;20217;-47
2021/08/21 09:43:01;;;;;;;0.73;0.73;;;18.90;99.90;;;;;;5102295;28;20201;-44
2021/08/21 09:45:28;;;;;;;1.10;0.90;;;19.00;99.90;;;;;;5104811;27;20208;-45
2021/08/21 09:48:00;;;;;;;2.00;1.10;;;19.00;99.90;;;;;;5122737;27;20200;-44
2021/08/21 09:50:28;;;;;;;0.80;0.80;;;19.10;99.90;;;;;;5121778;27;20221;-42
2021/08/21 09:53:01;;;;;;;1.17;0.80;;;19.20;99.90;;;;;;5101845;28;20201;-44
2021/08/21 09:55:29;;;;;;;1.30;1.20;;;19.30;99.90;;;;;;5103007;28;20201;-44
2021/08/21 09:58:00;;;;;;;1.30;0.80;;;19.40;99.90;;;;;;5097661;27;20225;-44
2021/08/21 10:00:27;;;;;;;1.43;1.00;;;19.50;99.90;;;;;;5096550;27;20227;-44
2021/08/21 10:02:55;;;;;;;1.10;0.97;;;19.70;99.90;;;;;;5123943;27;20197;-44
2021/08/21 10:05:24;;;;;;;0.70;0.70;;;19.80;99.90;;;;;;5123948;28;20245;-44
2021/08/21 10:07:56;;;;;;;1.73;0.90;;;19.90;99.90;;;;;;5118074;27;20273;-44
2021/08/21 10:10:23;;;;;;;1.43;0.77;;;20.10;99.90;;;;;;5123076;27;20211;-43
2021/08/21 10:12:54;;;;;;;1.30;1.00;;;20.20;99.90;;;;;;5110595;27;20193;-44
2021/08/21 10:15:22;;;;;;;0.80;0.77;;;20.30;99.90;;;;;;5100456;28;20811;-42
2021/08/21 10:17:49;;;;;;;1.43;0.70;;;20.40;99.90;;;;;;5102013;27;20217;-46
2021/08/21 10:20:16;;;;;;;1.10;0.50;;;20.50;99.90;;;;;;5128927;27;20235;-46
2021/08/21 10:22:45;;;;;;;3.13;0.90;;;20.50;99.90;;;;;;5105532;27;20647;-44
2021/08/21 10:25:12;;;;;;;0.87;0.60;;;20.60;99.90;;;;;;5124721;27;20188;-49
2021/08/21 10:27:42;;;;;;;2.30;0.70;;;20.50;99.90;;;;;;5120656;27;20196;-45
2021/08/21 10:30:14;;;;;;;1.50;1.23;;;20.50;99.90;;;;;;5123853;27;20236;-44
2021/08/21 10:32:42;;;;;;;1.10;1.00;;;20.50;99.90;;;;;;5112933;27;20199;-45
2021/08/21 10:35:10;;;;;;;0.97;0.90;;;20.60;99.90;;;;;;5128885;27;20196;-44
2021/08/21 10:37:39;;;;;;;1.03;0.90;;;20.70;99.90;;;;;;5114079;27;20223;-42
2021/08/21 10:40:38;;;;;;;1.00;0.80;;;20.70;99.90;;;;;;5113793;27;20231;-43
2021/08/21 10:43:07;;;;;;;0.90;0.90;;;20.80;99.90;;;;;;5113523;27;20215;-44
2021/08/21 10:45:51;;;;;;;1.23;0.87;;;20.90;99.90;;;;;;5117737;27;20224;-46
2021/08/21 10:48:54;;;;;;;0.50;0.50;;;20.90;99.90;;;;;;5113301;27;20638;-43
2021/08/21 10:51:36;;;;;;;0.73;0.73;;;20.90;99.90;;;;;;5108035;27;20717;-47
2021/08/21 10:54:36;;;;;;;1.10;0.80;;;20.90;99.90;;;;;;5115931;27;20292;-45
2021/08/21 10:57:30;;;;;;;0.60;0.60;;;21.00;99.90;;;;;;5111253;27;20246;-51
2021/08/21 10:59:57;;;;;;;1.30;0.90;;;21.00;99.90;;;;;;5109838;27;20274;-48
2021/08/21 11:02:43;;;;;;;1.13;0.80;;;20.90;99.90;;;;;;5120039;27;20211;-44
2021/08/21 11:05:48;;;;;;;1.27;1.17;;;20.90;99.90;;;;;;5122280;27;20291;-48
2021/08/21 11:08:15;;;;;;;1.27;1.10;;;21.10;99.90;;;;;;5118285;27;20192;-44
2021/08/21 11:10:42;;;;;;;1.10;1.00;;;21.00;99.90;;;;;;5123779;27;20224;-49
2021/08/21 11:13:12;;;;;;;1.00;0.97;;;21.00;99.90;;;;;;5127387;27;20189;-48
2021/08/21 11:15:40;;;;;;;2.10;1.10;;;21.10;99.90;;;;;;5120132;27;20272;-45
2021/08/21 11:18:19;;;;;;;1.03;0.80;;;21.10;99.90;;;;;;5126458;27;20214;-47
2021/08/21 11:20:46;;;;;;;2.10;1.25;;;21.20;99.90;;;;;;5102912;27;20231;-45
2021/08/21 11:23:20;;;;;;;0.68;0.65;;;21.30;99.90;;;;;;5118884;27;20199;-51
2021/08/21 11:25:47;;;;;;;0.82;0.70;;;21.50;99.90;;;;;;5117696;27;20228;-46
2021/08/21 11:28:21;;;;;;;1.20;0.80;;;21.50;99.90;;;;;;5123016;27;20192;-46
2021/08/21 11:31:10;;;;;;;0.83;0.83;;;21.50;99.90;;;;;;5131817;27;20219;-45
2021/08/21 11:33:38;;;;;;;2.83;0.70;;;21.50;99.90;;;;;;5137966;27;20209;-48
2021/08/21 11:36:05;;;;;;;0.57;0.57;;;21.60;99.90;;;;;;5111908;27;20215;-47
2021/08/21 11:38:33;;;;;;;0.85;0.85;;;21.80;99.90;;;;;;5117185;27;20209;-48
2021/08/21 11:41:01;;;;;;;1.00;0.80;;;21.90;99.90;;;;;;5130561;27;20220;-50
2021/08/21 11:43:31;;;;;;;0.70;0.70;;;21.80;99.90;;;;;;5132397;27;20774;-48
2021/08/21 11:46:00;;;;;;;1.33;0.90;;;21.80;99.90;;;;;;5133358;27;20205;-51
2021/08/21 11:48:28;;;;;;;1.00;0.80;;;21.90;99.90;;;;;;5120378;27;20188;-51
2021/08/21 11:50:56;;;;;;;0.70;0.70;;;21.90;99.90;;;;;;5109260;27;20303;-48
2021/08/21 11:53:24;;;;;;;3.03;1.05;;;21.80;99.90;;;;;;5122127;27;20185;-47
2021/08/21 11:55:51;;;;;;;0.73;0.65;;;21.90;99.90;;;;;;5114611;27;20212;-48
2021/08/21 11:58:29;;;;;;;2.08;0.77;;;21.90;99.90;;;;;;5128463;27;20211;-46
2021/08/21 12:01:02;;;;;;;0.80;0.80;;;22.00;99.90;;;;;;5119953;27;20724;-44
2021/08/21 12:03:35;;;;;;;0.90;0.80;;;21.90;99.90;;;;;;5127803;27;20196;-46
2021/08/21 12:06:02;;;;;;;1.35;1.20;;;21.80;99.60;;;;;;5109675;27;20661;-46
2021/08/21 12:08:29;;;;;;;2.65;1.05;;;21.80;99.90;;;;;;5123349;27;20185;-45
2021/08/21 12:10:58;;;;;;;1.30;1.00;;;21.70;99.90;;;;;;5119362;27;20212;-46
2021/08/21 12:13:28;;;;;;;1.02;0.93;;;21.80;99.90;;;;;;5101651;27;20194;-48
2021/08/21 12:15:57;;;;;;;1.52;1.00;;;21.90;99.90;;;;;;5112026;27;20566;-53
2021/08/21 12:18:26;;;;;;;0.90;0.90;;;21.90;99.90;;;;;;5102100;28;20213;-48
2021/08/21 12:20:54;;;;;;;2.15;0.90;;;22.00;99.90;;;;;;5106738;27;20209;-52
2021/08/21 12:23:21;;;;;;;1.48;0.90;;;21.90;99.90;;;;;;5101138;27;20327;-49
2021/08/21 12:25:51;;;;;;;1.02;0.90;;;22.00;99.90;;;;;;5110187;27;20286;-46
2021/08/21 12:28:19;;;;;;;1.08;0.90;;;22.00;99.90;;;;;;5113743;27;20271;-46
2021/08/21 12:31:06;;;;;;;1.52;0.98;;;22.10;99.90;;;;;;5106645;27;20228;-50
2021/08/21 12:33:35;;;;;;;1.15;1.02;;;22.30;99.90;;;;;;5117272;27;20193;-47
2021/08/21 12:36:17;;;;;;;1.27;1.02;;;22.40;99.90;;;;;;5106950;27;20215;-47
2021/08/21 12:39:04;;;;;;;2.05;1.00;;;22.60;99.90;;;;;;5098835;27;20213;-44
2021/08/21 12:41:32;;;;;;;1.38;0.90;;;22.60;98.90;;;;;;5116830;27;20224;-46
2021/08/21 12:44:08;;;;;;;0.90;0.90;;;22.60;99.90;;;;;;5100007;27;21510;-46
2021/08/21 12:46:37;;;;;;;0.70;0.70;;;22.60;99.80;;;;;;5111522;27;20202;-45
2021/08/21 12:49:08;;;;;;;1.23;1.10;;;22.60;99.80;;;;;;5104921;27;20287;-44
2021/08/21 12:51:37;;;;;;;1.73;1.38;;;22.70;99.30;;;;;;5111804;27;20884;-44
2021/08/21 12:54:05;;;;;;;1.30;1.17;;;22.70;99.70;;;;;;5113410;27;20211;-45
2021/08/21 12:56:32;;;;;;;0.60;0.57;;;22.70;99.40;;;;;;5124759;27;20201;-44
2021/08/21 12:59:13;;;;;;;1.13;1.02;;;22.80;98.50;;;;;;5105522;27;20248;-48